Time;durP1;ratioP1;P1;durP2;ratioP2;P2;SDS_P1;SDS_P2;PMS_P1;PMS_P2;Temp;Humidity;BMP_temperature;BMP_pressure;BME280_temperature;BME280_humidity;BME280_pressure;Samples;Min_cycle;Max_cycle;Signal;HPM_P1;HPM_P2
2023/03/08 00:01:34;;;;;;;8.23;4.00;;;;;;;7.33;52.98;93098.34;5065582;28;20058;-70
2023/03/08 00:03:59;;;;;;;14.35;4.03;;;;;;;7.26;53.43;93109.38;5065506;28;20025;-69
2023/03/08 00:06:26;;;;;;;9.93;3.70;;;;;;;7.27;53.24;93099.59;5065254;28;20311;-71
2023/03/08 00:08:59;;;;;;;6.57;3.22;;;;;;;7.30;53.19;93104.25;5065347;28;20048;-70
2023/03/08 00:11:25;;;;;;;10.20;3.50;;;;;;;7.30;53.35;93099.72;5065236;28;20028;-70
2023/03/08 00:13:51;;;;;;;8.77;2.72;;;;;;;7.23;53.39;93104.72;5065621;28;20040;-70
2023/03/08 00:16:16;;;;;;;6.28;3.03;;;;;;;7.25;53.59;93107.84;5065224;28;20028;-70
2023/03/08 00:18:42;;;;;;;9.00;3.63;;;;;;;7.19;53.72;93111.72;5065228;28;20059;-70
2023/03/08 00:21:17;;;;;;;8.23;3.25;;;;;;;7.20;54.06;93095.50;5065208;28;20016;-70
2023/03/08 00:23:44;;;;;;;7.93;3.10;;;;;;;7.24;53.97;93098.31;5065032;28;20235;-70
2023/03/08 00:26:11;;;;;;;7.35;2.78;;;;;;;7.30;54.13;93093.66;5065041;28;20036;-70
2023/03/08 00:28:37;;;;;;;9.07;2.88;;;;;;;7.32;54.03;93107.38;5064959;28;20044;-70
2023/03/08 00:31:05;;;;;;;8.68;3.08;;;;;;;7.31;54.29;93113.78;5064993;28;20025;-70
2023/03/08 00:33:31;;;;;;;5.63;3.03;;;;;;;7.28;54.34;93109.09;5064849;28;20028;-70
2023/03/08 00:36:05;;;;;;;7.68;2.63;;;;;;;7.26;54.26;93108.59;5064962;28;20020;-70
2023/03/08 00:38:33;;;;;;;10.73;3.92;;;;;;;7.21;54.48;93104.25;5064950;28;20029;-70
2023/03/08 00:40:58;;;;;;;5.32;2.83;;;;;;;7.20;54.32;93116.69;5064773;28;20039;-69
2023/03/08 00:43:25;;;;;;;8.48;3.38;;;;;;;7.13;54.50;93116.38;5063614;28;20029;-70
2023/03/08 00:45:50;;;;;;;12.25;3.25;;;;;;;7.13;54.45;93100.47;5063814;28;20024;-70
2023/03/08 00:48:16;;;;;;;8.80;3.80;;;;;;;7.13;54.77;93092.53;5064589;28;20056;-70
2023/03/08 00:50:41;;;;;;;10.43;3.40;;;;;;;7.16;55.09;93091.13;5064510;28;20338;-70
2023/03/08 00:53:07;;;;;;;6.22;2.85;;;;;;;7.10;54.87;93101.09;5064474;28;20023;-69
2023/03/08 00:55:34;;;;;;;9.60;3.50;;;;;;;7.06;54.85;93102.03;5064686;28;20096;-69
2023/03/08 00:57:59;;;;;;;7.20;3.67;;;;;;;6.97;54.98;93116.03;5064354;28;20021;-70
2023/03/08 01:00:24;;;;;;;9.32;3.35;;;;;;;6.91;55.31;93097.94;5064597;28;20063;-70
2023/03/08 01:02:50;;;;;;;6.32;3.13;;;;;;;6.91;55.65;93095.31;5064496;28;20025;-70
2023/03/08 01:05:15;;;;;;;8.05;3.58;;;;;;;6.90;55.56;93104.31;5064391;28;20200;-70
2023/03/08 01:07:41;;;;;;;8.90;3.53;;;;;;;6.91;55.48;93108.53;5064417;28;20088;-70
2023/03/08 01:10:07;;;;;;;8.70;3.22;;;;;;;6.82;55.82;93105.88;5064140;28;20320;-70
2023/03/08 01:12:34;;;;;;;14.05;3.53;;;;;;;6.83;55.84;93107.44;5064123;28;20044;-70
2023/03/08 01:15:00;;;;;;;5.65;3.72;;;;;;;6.79;55.68;93101.97;5064153;28;20311;-70
2023/03/08 01:17:26;;;;;;;9.00;3.80;;;;;;;6.73;55.89;93108.47;5064192;28;20019;-69
2023/03/08 01:19:51;;;;;;;7.85;3.03;;;;;;;6.71;55.89;93105.34;5064011;28;20037;-70
2023/03/08 01:22:17;;;;;;;9.88;3.40;;;;;;;6.73;55.74;93111.13;5063985;28;20013;-70
2023/03/08 01:24:46;;;;;;;8.23;3.00;;;;;;;6.73;55.85;93113.78;5063981;28;20331;-70
2023/03/08 01:27:12;;;;;;;22.90;4.40;;;;;;;6.69;55.67;93122.66;5062998;28;20384;-69
2023/03/08 01:29:38;;;;;;;7.07;3.25;;;;;;;6.58;55.87;93125.56;5062974;28;20021;-70
2023/03/08 01:32:03;;;;;;;7.50;3.67;;;;;;;6.49;56.29;93124.75;5063581;28;20383;-69
2023/03/08 01:34:29;;;;;;;16.48;4.80;;;;;;;6.47;56.60;93121.63;5063833;28;20360;-69
2023/03/08 01:36:54;;;;;;;7.45;3.25;;;;;;;6.41;56.45;93117.53;5063981;28;20028;-70
2023/03/08 01:39:20;;;;;;;6.53;3.08;;;;;;;6.34;56.79;93117.97;5063721;28;20223;-70
2023/03/08 01:41:45;;;;;;;11.00;3.75;;;;;;;6.32;57.08;93119.38;5063699;28;20033;-70
2023/03/08 01:44:19;;;;;;;8.07;3.78;;;;;;;6.29;57.48;93115.47;5063413;28;20044;-70
2023/03/08 01:46:45;;;;;;;7.45;3.80;;;;;;;6.28;57.54;93119.19;5063640;28;20048;-71
2023/03/08 01:49:29;;;;;;;7.55;3.42;;;;;;;6.14;57.75;93118.50;5063374;28;20045;-70
2023/03/08 01:52:13;;;;;;;6.35;2.90;;;;;;;6.06;57.98;93122.66;5063623;28;20025;-71
2023/03/08 01:54:45;;;;;;;11.40;3.67;;;;;;;5.97;58.29;93108.59;5063408;28;20076;-71
2023/03/08 01:57:16;;;;;;;;;;;;;;;5.99;58.07;93117.03;5063520;28;20199;-71
2023/03/08 01:59:42;;;;;;;7.72;3.30;;;;;;;5.90;58.61;93113.50;5063239;28;19904;-71
2023/03/08 02:02:08;;;;;;;10.93;3.30;;;;;;;5.84;59.01;93118.13;5063283;28;20013;-70
2023/03/08 02:04:34;;;;;;;10.90;3.08;;;;;;;5.92;58.64;93116.63;5063201;28;20059;-70
2023/03/08 02:07:00;;;;;;;8.80;3.65;;;;;;;5.88;58.87;93116.44;5063187;28;20037;-70
2023/03/08 02:09:26;;;;;;;6.28;3.30;;;;;;;5.74;59.20;93126.28;5063372;28;20035;-69
2023/03/08 02:11:52;;;;;;;8.10;3.55;;;;;;;5.75;59.19;93120.72;5063228;28;20025;-70
2023/03/08 02:14:19;;;;;;;8.25;2.80;;;;;;;5.74;59.22;93128.94;5062975;28;20024;-70
2023/03/08 02:16:44;;;;;;;9.85;3.60;;;;;;;5.69;59.42;93121.13;5063203;28;20043;-70
2023/03/08 02:19:19;;;;;;;9.30;3.53;;;;;;;5.69;59.53;93129.06;5063040;28;20319;-70
2023/03/08 02:21:45;;;;;;;8.27;3.35;;;;;;;5.66;59.89;93129.66;5063065;28;20016;-69
2023/03/08 02:24:21;;;;;;;6.93;3.85;;;;;;;5.59;60.19;93130.06;5062954;28;20031;-70
2023/03/08 02:26:50;;;;;;;6.80;3.42;;;;;;;5.54;59.85;93125.69;5063097;28;20063;-70
2023/03/08 02:29:15;;;;;;;5.40;3.25;;;;;;;5.51;60.53;93128.16;5062846;28;20036;-70
2023/03/08 02:31:41;;;;;;;7.50;2.92;;;;;;;5.50;60.61;93124.72;5062721;28;20162;-70
2023/03/08 02:34:06;;;;;;;7.88;3.33;;;;;;;5.49;60.72;93127.66;5062937;28;20024;-70
2023/03/08 02:36:31;;;;;;;6.95;3.30;;;;;;;5.45;60.82;93119.53;5062956;28;20096;-70
2023/03/08 02:38:57;;;;;;;7.75;4.10;;;;;;;5.46;61.09;93123.75;5062930;28;20028;-70
2023/03/08 02:41:22;;;;;;;9.63;4.63;;;;;;;5.45;61.07;93118.78;5062842;28;20032;-70
2023/03/08 02:43:48;;;;;;;14.85;4.57;;;;;;;5.42;61.11;93128.84;5062924;28;20082;-70
2023/03/08 02:46:14;;;;;;;8.68;4.68;;;;;;;5.41;61.35;93129.16;5062808;28;20104;-70
2023/03/08 02:48:39;;;;;;;12.00;4.70;;;;;;;5.38;61.40;93135.81;5062709;28;20044;-70
2023/03/08 02:51:05;;;;;;;13.73;5.03;;;;;;;5.34;61.58;93136.72;5062582;28;20032;-70
2023/03/08 02:53:30;;;;;;;10.35;5.25;;;;;;;5.36;61.48;93135.34;5062674;28;20021;-71
2023/03/08 02:55:56;;;;;;;10.60;4.93;;;;;;;5.35;61.46;93136.44;5062693;28;20027;-70
2023/03/08 02:58:21;;;;;;;9.20;4.18;;;;;;;5.36;61.42;93137.19;5062931;28;20028;-70
2023/03/08 03:00:46;;;;;;;11.82;4.95;;;;;;;5.26;61.52;93145.34;5062706;28;20024;-70
2023/03/08 03:03:12;;;;;;;10.73;4.43;;;;;;;5.25;61.61;93141.94;5062540;28;20056;-70
2023/03/08 03:05:44;;;;;;;12.02;3.97;;;;;;;5.23;61.56;93149.34;5062537;28;20032;-70
2023/03/08 03:08:10;;;;;;;11.45;4.63;;;;;;;5.12;61.88;93154.06;5063541;28;20246;-70
2023/03/08 03:10:37;;;;;;;9.77;3.85;;;;;;;5.11;62.01;93157.00;5066359;28;20029;-70
2023/03/08 03:13:04;;;;;;;9.27;3.88;;;;;;;5.03;62.29;93151.34;5066394;28;20103;-70
2023/03/08 03:15:30;;;;;;;8.30;3.72;;;;;;;5.02;62.37;93147.13;5066399;28;20017;-70
2023/03/08 03:17:55;;;;;;;8.52;3.83;;;;;;;5.06;62.68;93159.75;5066316;28;20192;-70
2023/03/08 03:20:21;;;;;;;10.52;3.80;;;;;;;5.00;62.79;93151.16;5066574;28;20272;-70
2023/03/08 03:22:46;;;;;;;12.98;4.90;;;;;;;4.99;62.89;93154.88;5066356;28;20031;-70
2023/03/08 03:25:12;;;;;;;12.38;4.88;;;;;;;4.94;62.84;93154.97;5066440;28;20364;-70
2023/03/08 03:27:38;;;;;;;11.23;5.10;;;;;;;4.91;63.09;93164.28;5066272;28;20223;-70
2023/03/08 03:30:05;;;;;;;12.95;5.35;;;;;;;4.92;62.89;93160.53;5066187;28;20025;-70
2023/03/08 03:32:30;;;;;;;12.80;5.32;;;;;;;4.87;63.15;93160.66;5065836;28;20125;-70
2023/03/08 03:34:56;;;;;;;17.10;5.68;;;;;;;4.87;63.19;93160.66;5066087;28;20048;-70
2023/03/08 03:37:22;;;;;;;16.98;4.93;;;;;;;4.82;63.40;93168.66;5066235;28;20250;-69
2023/03/08 03:39:47;;;;;;;12.27;5.30;;;;;;;4.81;63.43;93175.81;5066015;28;20024;-69
2023/03/08 03:42:12;;;;;;;11.10;4.85;;;;;;;4.75;63.68;93166.41;5065748;28;20021;-69
2023/03/08 03:44:38;;;;;;;14.27;6.40;;;;;;;4.82;63.77;93171.28;5065970;28;20090;-70
2023/03/08 03:47:04;;;;;;;18.45;5.72;;;;;;;4.73;63.62;93160.66;5065724;28;20043;-70
2023/03/08 03:49:29;;;;;;;11.43;5.07;;;;;;;4.71;63.84;93167.31;5064555;28;20043;-70
2023/03/08 03:51:55;;;;;;;14.35;5.10;;;;;;;4.68;64.20;93168.69;5065747;28;20216;-70
2023/03/08 03:54:20;;;;;;;17.38;6.15;;;;;;;4.67;64.22;93169.72;5065920;28;20041;-69
2023/03/08 03:56:46;;;;;;;19.13;6.75;;;;;;;4.71;64.41;93175.22;5065761;28;20370;-69
2023/03/08 03:59:11;;;;;;;12.05;5.40;;;;;;;4.67;64.55;93168.97;5065620;28;20029;-70
2023/03/08 04:01:37;;;;;;;13.85;5.78;;;;;;;4.61;64.87;93170.91;5065453;28;20377;-70
2023/03/08 04:04:02;;;;;;;17.45;5.90;;;;;;;4.67;65.13;93180.28;5065422;28;20262;-70
2023/03/08 04:06:29;;;;;;;18.30;5.65;;;;;;;4.72;64.80;93182.03;5065484;28;20104;-69
2023/03/08 04:08:58;;;;;;;10.20;4.80;;;;;;;4.68;64.90;93187.16;5065511;28;20029;-69
2023/03/08 04:11:26;;;;;;;12.68;5.32;;;;;;;4.58;65.30;93185.47;5065534;28;20320;-70
2023/03/08 04:13:52;;;;;;;14.57;5.80;;;;;;;4.57;65.59;93175.97;5065483;28;20339;-71
2023/03/08 04:16:20;;;;;;;17.15;6.20;;;;;;;4.63;65.65;93179.31;5064202;28;20319;-70
2023/03/08 04:18:46;;;;;;;14.73;5.55;;;;;;;4.68;65.63;93181.06;5065208;28;20044;-70
2023/03/08 04:21:13;;;;;;;13.60;5.07;;;;;;;4.72;65.72;93182.03;5065083;28;20032;-70
2023/03/08 04:23:39;;;;;;;12.10;5.90;;;;;;;4.75;65.62;93181.47;5065308;28;20029;-70
2023/03/08 04:26:06;;;;;;;13.65;5.75;;;;;;;4.71;65.51;93183.91;5065081;28;20071;-70
2023/03/08 04:28:32;;;;;;;12.27;5.80;;;;;;;4.73;65.60;93183.63;5065131;28;20025;-71
2023/03/08 04:30:59;;;;;;;13.43;6.78;;;;;;;4.76;65.47;93190.94;5064742;28;20048;-70
2023/03/08 04:33:25;;;;;;;18.65;5.57;;;;;;;4.71;65.53;93197.13;5065112;28;20327;-70
2023/03/08 04:35:50;;;;;;;15.50;6.50;;;;;;;4.70;65.65;93177.09;5064962;28;20040;-70
2023/03/08 04:38:17;;;;;;;14.55;6.60;;;;;;;4.77;65.91;93181.97;5064873;28;20029;-70
2023/03/08 04:41:09;;;;;;;18.77;5.80;;;;;;;4.69;66.36;93188.69;5064660;28;20020;-70
2023/03/08 04:43:34;;;;;;;11.98;5.55;;;;;;;4.66;66.42;93189.31;5064810;28;20025;-69
2023/03/08 04:46:00;;;;;;;18.17;6.05;;;;;;;4.69;66.31;93182.66;5064775;28;20063;-69
2023/03/08 04:48:26;;;;;;;17.48;5.68;;;;;;;4.68;66.24;93171.31;5064643;28;20053;-69
2023/03/08 04:50:58;;;;;;;14.50;5.53;;;;;;;4.76;66.30;93167.19;5064700;28;20251;-70
2023/03/08 04:53:25;;;;;;;19.00;6.10;;;;;;;4.82;66.19;93184.50;5064724;28;20099;-69
2023/03/08 04:55:51;;;;;;;13.68;5.55;;;;;;;4.85;65.95;93189.22;5063349;28;20119;-70
2023/03/08 04:58:17;;;;;;;16.00;5.75;;;;;;;4.82;65.90;93185.31;5064520;28;20331;-69
2023/03/08 05:00:43;;;;;;;11.02;5.13;;;;;;;4.84;66.05;93179.72;5064345;28;20021;-69
2023/03/08 05:03:09;;;;;;;19.63;6.13;;;;;;;4.89;65.77;93190.19;5064314;28;20074;-69
2023/03/08 05:05:34;;;;;;;14.73;5.90;;;;;;;4.86;65.62;93203.97;5064047;28;20319;-69
2023/03/08 05:08:03;;;;;;;19.75;5.82;;;;;;;4.83;65.74;93207.97;5064241;28;20033;-69
2023/03/08 05:10:29;;;;;;;10.00;4.63;;;;;;;4.85;65.88;93212.97;5064037;28;20338;-69
2023/03/08 05:12:54;;;;;;;10.68;5.25;;;;;;;4.87;65.51;93216.09;5064302;28;20048;-70
2023/03/08 05:15:22;;;;;;;14.57;5.75;;;;;;;4.81;65.78;93212.00;5064097;28;20319;-70
2023/03/08 05:17:48;;;;;;;14.18;5.32;;;;;;;4.81;65.87;93223.31;5063987;28;20017;-69
2023/03/08 05:20:13;;;;;;;14.85;5.20;;;;;;;4.82;65.78;93235.47;5063758;28;20024;-68
2023/03/08 05:22:39;;;;;;;12.10;4.28;;;;;;;4.84;65.75;93216.66;5062692;28;20032;-68
2023/03/08 05:25:04;;;;;;;28.23;5.85;;;;;;;4.89;66.04;93229.03;5063541;28;20029;-69
2023/03/08 05:27:34;;;;;;;10.27;4.47;;;;;;;4.94;65.68;93227.03;5063764;28;20043;-69
2023/03/08 05:29:59;;;;;;;10.23;4.85;;;;;;;4.91;66.00;93238.22;5063679;28;20214;-69
2023/03/08 05:32:25;;;;;;;12.40;4.93;;;;;;;4.98;66.02;93243.09;5063242;28;20029;-69
2023/03/08 05:34:53;;;;;;;14.25;5.18;;;;;;;5.05;65.99;93240.06;5062426;28;20025;-69
2023/03/08 05:37:19;;;;;;;23.15;5.80;;;;;;;5.14;65.55;93251.53;5063521;28;20063;-69
2023/03/08 05:39:47;;;;;;;16.95;5.20;;;;;;;5.22;65.42;93256.13;5063466;28;20351;-69
2023/03/08 05:42:12;;;;;;;16.85;4.88;;;;;;;5.30;65.00;93244.88;5063325;28;20033;-68
2023/03/08 05:44:38;;;;;;;8.57;4.75;;;;;;;5.34;64.82;93253.78;5063309;28;20059;-68
2023/03/08 05:47:03;;;;;;;10.13;5.63;;;;;;;5.39;64.48;93258.16;5063382;28;20339;-69
2023/03/08 05:49:29;;;;;;;12.65;4.90;;;;;;;5.45;64.30;93264.91;5063113;28;20072;-69
2023/03/08 05:51:54;;;;;;;21.58;6.50;;;;;;;5.52;64.20;93251.31;5062907;28;20024;-70
2023/03/08 05:54:20;;;;;;;17.67;5.80;;;;;;;5.53;64.10;93252.88;5063096;28;20282;-70
2023/03/08 05:56:46;;;;;;;20.15;6.53;;;;;;;5.52;64.09;93249.44;5063095;28;20047;-70
2023/03/08 05:59:11;;;;;;;18.48;6.72;;;;;;;5.59;64.10;93259.63;5063256;28;20040;-71
2023/03/08 06:01:37;;;;;;;22.40;7.55;;;;;;;5.61;64.33;93250.31;5063293;28;20027;-69
2023/03/08 06:04:02;;;;;;;21.17;7.68;;;;;;;5.68;64.28;93264.97;5063159;28;20062;-71
2023/03/08 06:06:28;;;;;;;18.10;7.75;;;;;;;5.68;64.19;93265.78;5062605;28;20021;-70
2023/03/08 06:08:55;;;;;;;31.85;9.13;;;;;;;5.73;63.83;93267.53;5062886;28;20025;-70
2023/03/08 06:11:21;;;;;;;27.98;10.00;;;;;;;5.77;64.16;93282.50;5062672;28;20319;-69
2023/03/08 06:13:47;;;;;;;27.83;8.90;;;;;;;5.80;63.99;93271.34;5062698;28;20054;-69
2023/03/08 06:16:12;;;;;;;31.77;8.98;;;;;;;5.81;63.93;93274.75;5062363;28;20025;-69
2023/03/08 06:18:39;;;;;;;33.08;9.05;;;;;;;5.85;63.73;93274.97;5061388;28;20056;-69
2023/03/08 06:21:06;;;;;;;21.50;9.38;;;;;;;5.90;63.72;93285.41;5062345;28;20013;-71
2023/03/08 06:23:33;;;;;;;25.13;10.35;;;;;;;5.97;63.61;93289.25;5062599;28;20246;-70
2023/03/08 06:25:59;;;;;;;35.03;9.00;;;;;;;6.02;63.40;93298.94;5062285;28;20192;-68
2023/03/08 06:28:26;;;;;;;36.85;10.98;;;;;;;6.08;63.25;93297.75;5060077;28;20028;-68
2023/03/08 06:30:52;;;;;;;23.15;10.23;;;;;;;6.13;63.28;93299.53;5060971;28;20029;-70
2023/03/08 06:33:20;;;;;;;25.20;10.38;;;;;;;6.17;63.06;93308.44;5062517;28;20032;-69
2023/03/08 06:36:06;;;;;;;22.50;9.60;;;;;;;6.22;63.10;93301.13;5061328;28;20025;-70
2023/03/08 06:38:33;;;;;;;37.30;9.93;;;;;;;6.28;62.91;93303.69;5062382;28;20021;-70
2023/03/08 06:40:59;;;;;;;27.65;11.32;;;;;;;6.37;62.90;93299.22;5062473;28;20383;-69
2023/03/08 06:43:28;;;;;;;28.23;9.10;;;;;;;6.43;62.81;93305.97;5064244;28;20021;-70
2023/03/08 06:45:54;;;;;;;29.27;9.40;;;;;;;6.53;62.77;93316.31;5066000;28;20201;-70
2023/03/08 06:48:20;;;;;;;34.38;8.40;;;;;;;6.66;62.30;93304.13;5066552;28;20106;-70
2023/03/08 06:50:45;;;;;;;29.83;7.38;;;;;;;6.74;62.44;93314.00;5066344;28;20029;-70
2023/03/08 06:53:13;;;;;;;22.80;9.00;;;;;;;6.86;62.11;93323.25;5064763;28;20350;-70
2023/03/08 06:55:39;;;;;;;22.75;7.97;;;;;;;6.98;61.70;93328.78;5066759;28;20028;-70
2023/03/08 06:58:05;;;;;;;25.33;7.45;;;;;;;7.11;61.16;93327.91;5066707;28;20043;-68
2023/03/08 07:00:31;;;;;;;28.63;7.13;;;;;;;7.22;60.76;93326.59;5066427;28;20062;-69
2023/03/08 07:02:57;;;;;;;10.95;5.72;;;;;;;7.32;60.42;93341.44;5066484;28;20035;-69
2023/03/08 07:05:22;;;;;;;14.88;6.07;;;;;;;7.44;60.49;93344.28;5066643;28;20243;-68
2023/03/08 07:07:48;;;;;;;17.05;5.72;;;;;;;7.65;59.69;93338.44;5066274;28;20443;-68
2023/03/08 07:10:15;;;;;;;11.65;5.53;;;;;;;7.81;59.48;93344.88;5065800;28;20062;-69
2023/03/08 07:12:42;;;;;;;13.95;5.20;;;;;;;8.05;58.94;93356.97;5066287;28;20265;-68
2023/03/08 07:15:17;;;;;;;14.60;4.53;;;;;;;8.31;58.21;93338.44;5066147;28;20025;-68
2023/03/08 07:17:44;;;;;;;14.60;4.80;;;;;;;8.52;57.59;93348.50;5066138;28;20031;-68
2023/03/08 07:20:12;;;;;;;10.50;5.30;;;;;;;8.68;56.97;93344.28;5066124;28;20208;-68
2023/03/08 07:22:37;;;;;;;12.90;5.30;;;;;;;8.84;56.28;93355.97;5065640;28;20020;-68
2023/03/08 07:25:03;;;;;;;18.80;5.05;;;;;;;8.97;56.39;93342.84;5065663;28;20037;-68
2023/03/08 07:27:29;;;;;;;16.15;4.80;;;;;;;9.00;55.67;93350.97;5065631;28;20024;-68
2023/03/08 07:29:54;;;;;;;15.45;5.05;;;;;;;9.04;55.61;93343.94;5064311;28;20035;-68
2023/03/08 07:32:20;;;;;;;14.02;5.32;;;;;;;9.14;55.78;93347.34;5064243;28;20040;-68
2023/03/08 07:34:45;;;;;;;11.10;4.70;;;;;;;9.29;55.55;93349.50;5064270;28;20262;-68
2023/03/08 07:37:12;;;;;;;19.30;5.43;;;;;;;9.43;55.28;93341.34;5064191;28;20037;-69
2023/03/08 07:39:37;;;;;;;19.55;5.72;;;;;;;9.62;54.36;93343.59;5064367;28;20028;-69
2023/03/08 07:42:03;;;;;;;15.02;5.07;;;;;;;9.82;54.34;93336.81;5064162;28;20315;-68
2023/03/08 07:44:29;;;;;;;34.50;5.28;;;;;;;10.02;53.90;93340.63;5065321;28;20369;-69
2023/03/08 07:46:54;;;;;;;18.08;4.55;;;;;;;10.20;52.79;93339.41;5065772;28;20060;-69
2023/03/08 07:49:19;;;;;;;17.63;4.78;;;;;;;10.34;52.04;93338.41;5065520;28;20041;-69
2023/03/08 07:51:45;;;;;;;18.45;5.20;;;;;;;10.44;51.60;93343.34;5065688;28;20063;-69
2023/03/08 07:54:11;;;;;;;18.30;4.03;;;;;;;10.52;51.54;93342.53;5064907;28;20025;-69
2023/03/08 07:56:37;;;;;;;12.98;4.82;;;;;;;10.60;51.23;93347.03;5065547;28;20033;-69
2023/03/08 07:59:02;;;;;;;14.65;5.68;;;;;;;10.87;50.72;93360.13;5065486;28;20040;-69
2023/03/08 08:01:28;;;;;;;17.52;4.32;;;;;;;11.02;50.41;93346.19;5065460;28;20033;-69
2023/03/08 08:03:54;;;;;;;11.70;4.30;;;;;;;11.22;49.87;93349.94;5065526;28;20029;-68
2023/03/08 08:06:19;;;;;;;12.55;3.92;;;;;;;11.24;49.20;93347.72;5065450;28;20037;-69
2023/03/08 08:08:44;;;;;;;16.83;5.82;;;;;;;11.34;49.00;93343.88;5065362;28;20045;-69
2023/03/08 08:11:15;;;;;;;10.75;4.38;;;;;;;11.37;48.72;93351.97;5065151;28;20060;-69
2023/03/08 08:13:41;;;;;;;15.98;5.13;;;;;;;11.36;48.67;93355.75;5064091;28;20052;-69
2023/03/08 08:16:07;;;;;;;17.08;4.80;;;;;;;11.42;48.11;93353.66;5065305;28;20185;-69
2023/03/08 08:18:33;;;;;;;20.75;5.15;;;;;;;11.41;48.23;93360.88;5065228;28;20021;-68
2023/03/08 08:21:05;;;;;;;11.63;5.00;;;;;;;11.44;48.16;93360.22;5064905;28;20258;-69
2023/03/08 08:23:30;;;;;;;14.17;4.37;;;;;;;11.43;47.88;93353.31;5064967;28;20088;-69
2023/03/08 08:25:56;;;;;;;23.05;5.32;;;;;;;11.53;47.97;93370.81;5065238;28;20062;-68
2023/03/08 08:28:23;;;;;;;16.17;5.07;;;;;;;11.60;47.98;93357.72;5065031;28;20017;-69
2023/03/08 08:31:00;;;;;;;12.82;5.28;;;;;;;11.68;47.79;93361.38;5064942;28;20049;-69
2023/03/08 08:33:27;;;;;;;11.30;5.65;;;;;;;11.73;47.43;93363.84;5064880;28;20040;-69
2023/03/08 08:35:53;;;;;;;18.60;5.75;;;;;;;11.76;46.93;93360.50;5064784;28;20024;-69
2023/03/08 08:38:18;;;;;;;13.80;4.90;;;;;;;11.86;46.99;93361.94;5064770;28;20220;-69
2023/03/08 08:40:43;;;;;;;16.60;4.18;;;;;;;12.12;46.05;93358.22;5064695;28;20017;-69
2023/03/08 08:43:09;;;;;;;17.15;3.85;;;;;;;12.40;45.37;93361.00;5064551;28;20040;-69
2023/03/08 08:45:34;;;;;;;20.88;3.85;;;;;;;12.66;45.24;93365.97;5064409;28;20027;-69
2023/03/08 08:48:00;;;;;;;22.67;4.10;;;;;;;12.81;44.23;93359.13;5064535;28;20324;-69
2023/03/08 08:50:25;;;;;;;17.42;4.18;;;;;;;13.08;43.68;93354.13;5064624;28;20316;-69
2023/03/08 08:52:50;;;;;;;12.43;3.90;;;;;;;13.18;42.70;93353.63;5064445;28;20044;-69
2023/03/08 08:55:16;;;;;;;12.82;3.47;;;;;;;13.28;42.72;93353.16;5064519;28;20067;-69
2023/03/08 08:57:41;;;;;;;22.55;4.20;;;;;;;13.42;42.27;93353.53;5064385;28;20090;-69
2023/03/08 09:00:08;;;;;;;9.43;4.13;;;;;;;13.51;42.01;93352.63;5064553;28;20096;-69
2023/03/08 09:02:34;;;;;;;23.55;4.35;;;;;;;13.52;41.72;93346.16;5064133;28;20062;-69
2023/03/08 09:05:00;;;;;;;13.85;4.28;;;;;;;13.51;42.01;93360.66;5063932;28;20043;-67
2023/03/08 09:07:25;;;;;;;16.33;4.07;;;;;;;13.58;41.94;93366.19;5063278;28;20307;-69
2023/03/08 09:09:53;;;;;;;7.93;3.78;;;;;;;13.66;42.08;93362.56;5064112;28;20027;-69
2023/03/08 09:12:19;;;;;;;17.70;3.75;;;;;;;13.63;41.58;93355.22;5063958;28;20311;-69
2023/03/08 09:14:45;;;;;;;10.43;3.85;;;;;;;13.61;41.15;93355.56;5064063;28;20029;-69
2023/03/08 09:17:11;;;;;;;10.57;3.80;;;;;;;13.54;41.02;93359.97;5064129;28;20024;-69
2023/03/08 09:19:36;;;;;;;17.88;5.18;;;;;;;13.51;41.01;93363.31;5063893;28;20025;-69
2023/03/08 09:22:02;;;;;;;25.73;4.63;;;;;;;13.33;42.07;93355.63;5063882;28;20013;-69
2023/03/08 09:24:27;;;;;;;12.23;4.80;;;;;;;13.47;42.26;93351.75;5063718;28;20040;-69
2023/03/08 09:26:53;;;;;;;15.65;4.20;;;;;;;13.54;41.76;93352.72;5062848;28;20021;-69
2023/03/08 09:29:18;;;;;;;9.05;3.78;;;;;;;13.57;41.38;93343.22;5063565;28;20196;-69
2023/03/08 09:31:44;;;;;;;14.25;4.35;;;;;;;13.48;41.21;93347.97;5063684;28;20031;-69
2023/03/08 09:34:13;;;;;;;15.38;4.13;;;;;;;13.55;41.16;93354.25;5063717;28;20017;-69
2023/03/08 09:36:39;;;;;;;8.52;3.88;;;;;;;13.67;40.11;93349.97;5063526;28;20092;-69
2023/03/08 09:39:05;;;;;;;7.57;3.95;;;;;;;13.65;40.02;93340.34;5063577;28;20215;-69
2023/03/08 09:41:38;;;;;;;13.30;4.15;;;;;;;13.60;40.81;93337.94;5063545;28;20036;-69
2023/03/08 09:44:10;;;;;;;8.25;4.15;;;;;;;13.48;40.26;93335.34;5063357;28;20021;-69
2023/03/08 09:46:41;;;;;;;9.98;4.35;;;;;;;13.35;40.71;93334.63;5063420;28;20052;-69
2023/03/08 09:49:14;;;;;;;12.85;4.38;;;;;;;13.30;40.93;93337.56;5063402;28;20268;-69
2023/03/08 09:51:44;;;;;;;10.30;5.15;;;;;;;13.23;41.54;93332.00;5063034;28;20029;-69
2023/03/08 09:54:19;;;;;;;14.38;4.13;;;;;;;13.12;41.59;93333.59;5063402;28;20040;-69
2023/03/08 09:56:48;;;;;;;9.95;4.82;;;;;;;13.12;41.69;93328.25;5063205;28;20224;-69
2023/03/08 09:59:33;;;;;;;12.65;4.57;;;;;;;13.10;41.79;93327.81;5063166;28;20253;-69
2023/03/08 10:02:25;;;;;;;11.85;4.97;;;;;;;12.97;41.43;93325.19;5063128;28;20084;-69
2023/03/08 10:05:05;;;;;;;9.90;4.28;;;;;;;12.81;42.23;93319.00;5062007;28;20270;-69
2023/03/08 10:07:58;;;;;;;11.75;5.03;;;;;;;12.84;42.78;93324.47;5062529;28;20028;-69
2023/03/08 10:11:02;;;;;;;14.43;5.43;;;;;;;12.77;42.30;93318.13;5063030;28;20319;-69
2023/03/08 10:13:40;;;;;;;19.02;5.13;;;;;;;12.81;42.80;93329.69;5063009;28;20020;-69
2023/03/08 10:16:06;;;;;;;12.82;5.43;;;;;;;12.89;42.50;93314.63;5062917;28;20375;-69
2023/03/08 10:18:46;;;;;;;17.65;6.00;;;;;;;12.83;42.09;93325.56;5062771;28;20020;-69
2023/03/08 10:21:16;;;;;;;25.02;6.07;;;;;;;12.75;42.61;93321.13;5062974;28;20090;-69
2023/03/08 10:23:44;;;;;;;13.43;5.65;;;;;;;12.77;42.70;93312.78;5062714;28;20021;-69
2023/03/08 10:26:12;;;;;;;17.67;5.55;;;;;;;12.80;42.49;93304.06;5062444;28;20315;-69
2023/03/08 10:28:38;;;;;;;13.27;4.32;;;;;;;12.74;41.86;93311.56;5062753;28;20220;-69
2023/03/08 10:31:18;;;;;;;16.95;4.68;;;;;;;12.77;42.38;93310.88;5062521;28;20025;-69
2023/03/08 10:33:45;;;;;;;15.13;5.65;;;;;;;13.04;42.46;93311.22;5062824;28;20131;-69
2023/03/08 10:36:19;;;;;;;8.75;4.25;;;;;;;13.28;41.84;93304.97;5062643;28;20025;-69
2023/03/08 10:38:56;;;;;;;12.30;5.15;;;;;;;13.58;40.36;93297.34;5062517;28;20280;-69
2023/03/08 10:41:21;;;;;;;14.80;4.97;;;;;;;13.66;40.15;93303.66;5062640;28;20270;-69
2023/03/08 10:43:50;;;;;;;16.95;5.07;;;;;;;13.90;40.64;93286.63;5062680;28;20021;-69
2023/03/08 10:46:27;;;;;;;14.07;4.53;;;;;;;14.26;40.19;93284.75;5062633;28;20301;-69
2023/03/08 10:48:53;;;;;;;15.23;4.97;;;;;;;14.71;39.64;93286.09;5062258;28;20098;-69
2023/03/08 10:51:21;;;;;;;14.95;5.38;;;;;;;15.03;38.98;93276.00;5062309;28;20036;-69
2023/03/08 10:53:58;;;;;;;12.20;5.03;;;;;;;15.29;37.16;93271.88;5062387;28;20028;-69
2023/03/08 10:56:43;;;;;;;12.05;5.43;;;;;;;15.38;36.66;93272.41;5062685;28;20029;-69
2023/03/08 10:59:36;;;;;;;9.07;4.72;;;;;;;15.53;36.47;93275.31;5061195;28;20048;-69
2023/03/08 11:02:13;;;;;;;17.83;6.30;;;;;;;15.56;37.45;93280.00;5061218;28;20043;-69
2023/03/08 11:04:50;;;;;;;19.23;6.40;;;;;;;15.77;36.83;93275.00;5062479;28;20032;-69
2023/03/08 11:07:25;;;;;;;15.68;8.10;;;;;;;15.83;36.59;93270.09;5062105;28;20025;-69
2023/03/08 11:09:50;;;;;;;20.98;6.43;;;;;;;15.98;35.47;93268.41;5062743;28;20059;-69
2023/03/08 11:12:23;;;;;;;14.40;5.85;;;;;;;16.17;36.08;93265.63;5062029;28;20025;-69
2023/03/08 11:14:50;;;;;;;17.63;5.43;;;;;;;16.25;35.60;93261.13;5062127;28;20200;-69
2023/03/08 11:17:38;;;;;;;8.20;4.68;;;;;;;16.47;34.67;93253.34;5062447;28;20036;-69
2023/03/08 11:20:29;;;;;;;15.82;4.55;;;;;;;16.23;35.27;93253.41;5062357;28;20035;-69
2023/03/08 11:23:18;;;;;;;6.90;2.20;;;;;;;16.35;34.02;93235.53;5053750;28;20029;-69
2023/03/08 11:25:46;;;;;;;8.23;1.25;;;;;;;16.38;33.23;93221.31;5062096;28;20211;-69
2023/03/08 11:28:36;;;;;;;3.95;1.60;;;;;;;16.07;33.60;93215.16;5062331;28;20039;-69
2023/03/08 11:31:30;;;;;;;7.25;1.55;;;;;;;16.22;34.17;93213.44;5065721;28;20036;-69
2023/03/08 11:34:17;;;;;;;6.68;1.85;;;;;;;16.34;33.73;93215.13;5065520;28;20024;-69
2023/03/08 11:37:12;;;;;;;9.95;3.40;;;;;;;16.68;34.70;93209.78;5065888;28;20311;-69
2023/03/08 11:39:43;;;;;;;7.85;2.53;;;;;;;16.99;33.24;93190.53;5066274;28;20215;-69